sensor_id;sensor_type;location;lat;lon;timestamp;P1;durP1;ratioP1;P2;durP2;ratioP2
44774;SDS011;31340;51.402;0.016;2024-01-06T00:01:28;16.67;;;8.88;;
44774;SDS011;31340;51.402;0.016;2024-01-06T00:03:56;14.65;;;8.30;;
44774;SDS011;31340;51.402;0.016;2024-01-06T00:06:25;20.13;;;9.07;;
44774;SDS011;31340;51.402;0.016;2024-01-06T00:08:53;14.25;;;7.90;;
44774;SDS011;31340;51.402;0.016;2024-01-06T00:11:22;13.35;;;8.35;;
44774;SDS011;31340;51.402;0.016;2024-01-06T00:13:50;16.02;;;8.15;;
44774;SDS011;31340;51.402;0.016;2024-01-06T00:16:18;17.52;;;8.85;;
44774;SDS011;31340;51.402;0.016;2024-01-06T00:18:49;14.73;;;8.13;;
44774;SDS011;31340;51.402;0.016;2024-01-06T00:21:17;16.48;;;8.32;;
44774;SDS011;31340;51.402;0.016;2024-01-06T00:23:45;15.73;;;8.50;;
44774;SDS011;31340;51.402;0.016;2024-01-06T00:26:13;18.35;;;8.73;;
44774;SDS011;31340;51.402;0.016;2024-01-06T00:28:41;20.23;;;9.00;;
44774;SDS011;31340;51.402;0.016;2024-01-06T00:31:09;17.50;;;8.70;;
44774;SDS011;31340;51.402;0.016;2024-01-06T00:33:37;17.33;;;8.90;;
44774;SDS011;31340;51.402;0.016;2024-01-06T00:36:06;19.48;;;8.82;;
44774;SDS011;31340;51.402;0.016;2024-01-06T00:38:35;15.75;;;8.50;;
44774;SDS011;31340;51.402;0.016;2024-01-06T00:41:04;14.80;;;8.60;;
44774;SDS011;31340;51.402;0.016;2024-01-06T00:43:35;16.95;;;8.05;;
44774;SDS011;31340;51.402;0.016;2024-01-06T00:46:03;15.18;;;8.10;;
44774;SDS011;31340;51.402;0.016;2024-01-06T00:48:31;14.95;;;8.68;;
44774;SDS011;31340;51.402;0.016;2024-01-06T00:50:59;21.08;;;9.35;;
44774;SDS011;31340;51.402;0.016;2024-01-06T00:53:28;15.60;;;8.32;;
44774;SDS011;31340;51.402;0.016;2024-01-06T00:55:56;18.20;;;8.18;;
44774;SDS011;31340;51.402;0.016;2024-01-06T00:58:27;19.48;;;8.00;;
44774;SDS011;31340;51.402;0.016;2024-01-06T01:00:54;17.38;;;8.20;;
44774;SDS011;31340;51.402;0.016;2024-01-06T01:03:22;14.18;;;8.00;;
44774;SDS011;31340;51.402;0.016;2024-01-06T01:05:53;15.68;;;8.48;;
44774;SDS011;31340;51.402;0.016;2024-01-06T01:08:21;16.67;;;8.35;;
44774;SDS011;31340;51.402;0.016;2024-01-06T01:13:21;17.35;;;7.60;;
44774;SDS011;31340;51.402;0.016;2024-01-06T01:15:49;15.52;;;7.85;;
44774;SDS011;31340;51.402;0.016;2024-01-06T01:18:17;16.42;;;7.60;;
44774;SDS011;31340;51.402;0.016;2024-01-06T01:20:46;17.83;;;7.68;;
44774;SDS011;31340;51.402;0.016;2024-01-06T01:23:14;15.10;;;8.40;;
44774;SDS011;31340;51.402;0.016;2024-01-06T01:25:42;12.50;;;6.88;;
44774;SDS011;31340;51.402;0.016;2024-01-06T01:30:40;15.35;;;7.85;;
44774;SDS011;31340;51.402;0.016;2024-01-06T01:33:08;15.27;;;7.07;;
44774;SDS011;31340;51.402;0.016;2024-01-06T01:35:36;14.27;;;7.40;;
44774;SDS011;31340;51.402;0.016;2024-01-06T01:38:04;16.88;;;7.22;;
44774;SDS011;31340;51.402;0.016;2024-01-06T01:40:34;15.57;;;7.55;;
44774;SDS011;31340;51.402;0.016;2024-01-06T01:43:02;14.30;;;7.22;;
44774;SDS011;31340;51.402;0.016;2024-01-06T01:45:30;14.15;;;7.72;;
44774;SDS011;31340;51.402;0.016;2024-01-06T01:47:58;17.30;;;7.88;;
44774;SDS011;31340;51.402;0.016;2024-01-06T01:50:26;16.20;;;7.55;;
44774;SDS011;31340;51.402;0.016;2024-01-06T01:52:55;15.55;;;8.55;;
44774;SDS011;31340;51.402;0.016;2024-01-06T01:55:23;13.35;;;7.05;;
44774;SDS011;31340;51.402;0.016;2024-01-06T01:57:51;15.85;;;7.78;;
44774;SDS011;31340;51.402;0.016;2024-01-06T02:00:20;18.88;;;8.02;;
44774;SDS011;31340;51.402;0.016;2024-01-06T02:02:50;15.25;;;8.10;;
44774;SDS011;31340;51.402;0.016;2024-01-06T02:05:22;17.48;;;7.55;;
44774;SDS011;31340;51.402;0.016;2024-01-06T02:07:56;16.48;;;7.22;;
44774;SDS011;31340;51.402;0.016;2024-01-06T02:10:24;15.60;;;7.32;;
44774;SDS011;31340;51.402;0.016;2024-01-06T02:12:55;14.80;;;7.57;;
44774;SDS011;31340;51.402;0.016;2024-01-06T02:15:23;18.00;;;7.90;;
44774;SDS011;31340;51.402;0.016;2024-01-06T02:17:56;16.52;;;7.70;;
44774;SDS011;31340;51.402;0.016;2024-01-06T02:20:24;17.02;;;7.57;;
44774;SDS011;31340;51.402;0.016;2024-01-06T02:22:53;14.48;;;7.43;;
44774;SDS011;31340;51.402;0.016;2024-01-06T02:25:21;14.68;;;7.93;;
44774;SDS011;31340;51.402;0.016;2024-01-06T02:30:21;17.85;;;7.88;;
44774;SDS011;31340;51.402;0.016;2024-01-06T02:36:10;14.82;;;7.47;;
44774;SDS011;31340;51.402;0.016;2024-01-06T02:38:39;15.27;;;7.10;;
44774;SDS011;31340;51.402;0.016;2024-01-06T02:41:06;12.90;;;7.63;;
44774;SDS011;31340;51.402;0.016;2024-01-06T02:43:34;14.65;;;7.30;;
44774;SDS011;31340;51.402;0.016;2024-01-06T02:46:04;20.52;;;7.75;;
44774;SDS011;31340;51.402;0.016;2024-01-06T02:48:32;19.90;;;8.98;;
44774;SDS011;31340;51.402;0.016;2024-01-06T02:51:00;15.10;;;7.15;;
44774;SDS011;31340;51.402;0.016;2024-01-06T02:53:28;12.60;;;7.05;;
44774;SDS011;31340;51.402;0.016;2024-01-06T02:55:55;15.18;;;6.72;;
44774;SDS011;31340;51.402;0.016;2024-01-06T02:58:23;15.57;;;6.97;;
44774;SDS011;31340;51.402;0.016;2024-01-06T03:00:52;12.88;;;6.60;;
44774;SDS011;31340;51.402;0.016;2024-01-06T03:03:20;13.30;;;6.97;;
44774;SDS011;31340;51.402;0.016;2024-01-06T03:05:50;15.95;;;6.47;;
44774;SDS011;31340;51.402;0.016;2024-01-06T03:08:19;18.05;;;7.70;;
44774;SDS011;31340;51.402;0.016;2024-01-06T03:10:46;12.20;;;6.45;;
44774;SDS011;31340;51.402;0.016;2024-01-06T03:13:15;11.32;;;6.10;;
44774;SDS011;31340;51.402;0.016;2024-01-06T03:15:43;18.33;;;6.93;;
44774;SDS011;31340;51.402;0.016;2024-01-06T03:18:11;13.35;;;6.60;;
44774;SDS011;31340;51.402;0.016;2024-01-06T03:20:39;13.00;;;6.25;;
44774;SDS011;31340;51.402;0.016;2024-01-06T03:23:07;16.27;;;6.65;;
44774;SDS011;31340;51.402;0.016;2024-01-06T03:25:34;15.88;;;6.90;;
44774;SDS011;31340;51.402;0.016;2024-01-06T03:28:02;16.42;;;7.15;;
44774;SDS011;31340;51.402;0.016;2024-01-06T03:30:30;18.05;;;7.07;;
44774;SDS011;31340;51.402;0.016;2024-01-06T03:32:58;17.20;;;7.32;;
44774;SDS011;31340;51.402;0.016;2024-01-06T03:35:26;15.43;;;6.95;;
44774;SDS011;31340;51.402;0.016;2024-01-06T03:37:53;17.70;;;7.32;;
44774;SDS011;31340;51.402;0.016;2024-01-06T03:40:23;12.77;;;6.85;;
44774;SDS011;31340;51.402;0.016;2024-01-06T03:42:50;13.68;;;6.70;;
44774;SDS011;31340;51.402;0.016;2024-01-06T03:45:18;15.68;;;6.78;;
44774;SDS011;31340;51.402;0.016;2024-01-06T03:47:46;13.25;;;6.05;;
44774;SDS011;31340;51.402;0.016;2024-01-06T03:50:15;12.00;;;5.28;;
44774;SDS011;31340;51.402;0.016;2024-01-06T03:52:43;13.75;;;4.78;;
44774;SDS011;31340;51.402;0.016;2024-01-06T03:55:11;11.65;;;5.07;;
44774;SDS011;31340;51.402;0.016;2024-01-06T03:57:39;12.00;;;4.50;;
44774;SDS011;31340;51.402;0.016;2024-01-06T04:00:08;17.00;;;5.18;;
44774;SDS011;31340;51.402;0.016;2024-01-06T04:02:36;12.50;;;5.35;;
44774;SDS011;31340;51.402;0.016;2024-01-06T04:05:04;9.27;;;4.72;;
44774;SDS011;31340;51.402;0.016;2024-01-06T04:07:32;9.52;;;4.47;;
44774;SDS011;31340;51.402;0.016;2024-01-06T04:10:00;14.65;;;4.78;;
44774;SDS011;31340;51.402;0.016;2024-01-06T04:12:31;11.23;;;4.10;;
44774;SDS011;31340;51.402;0.016;2024-01-06T04:14:59;11.05;;;4.43;;
44774;SDS011;31340;51.402;0.016;2024-01-06T04:17:28;10.30;;;4.22;;
44774;SDS011;31340;51.402;0.016;2024-01-06T04:19:57;7.78;;;4.60;;
44774;SDS011;31340;51.402;0.016;2024-01-06T04:22:26;9.00;;;3.75;;
44774;SDS011;31340;51.402;0.016;2024-01-06T04:24:54;10.57;;;4.43;;
44774;SDS011;31340;51.402;0.016;2024-01-06T04:27:22;15.93;;;5.35;;
44774;SDS011;31340;51.402;0.016;2024-01-06T04:29:50;12.45;;;5.05;;
44774;SDS011;31340;51.402;0.016;2024-01-06T04:32:20;8.52;;;4.45;;
44774;SDS011;31340;51.402;0.016;2024-01-06T04:34:49;9.63;;;4.38;;
44774;SDS011;31340;51.402;0.016;2024-01-06T04:37:17;7.25;;;4.40;;
44774;SDS011;31340;51.402;0.016;2024-01-06T04:39:46;8.07;;;3.70;;
44774;SDS011;31340;51.402;0.016;2024-01-06T04:42:16;8.40;;;4.18;;
44774;SDS011;31340;51.402;0.016;2024-01-06T04:44:44;10.02;;;4.20;;
44774;SDS011;31340;51.402;0.016;2024-01-06T04:47:13;8.35;;;4.25;;
44774;SDS011;31340;51.402;0.016;2024-01-06T04:49:42;15.40;;;4.65;;
44774;SDS011;31340;51.402;0.016;2024-01-06T04:52:11;18.35;;;4.97;;
44774;SDS011;31340;51.402;0.016;2024-01-06T04:54:39;8.68;;;3.60;;
44774;SDS011;31340;51.402;0.016;2024-01-06T04:57:07;8.55;;;4.10;;
44774;SDS011;31340;51.402;0.016;2024-01-06T04:59:36;7.28;;;3.63;;
44774;SDS011;31340;51.402;0.016;2024-01-06T05:02:05;12.13;;;4.57;;
44774;SDS011;31340;51.402;0.016;2024-01-06T05:04:33;12.15;;;4.22;;
44774;SDS011;31340;51.402;0.016;2024-01-06T05:07:02;9.93;;;4.20;;
44774;SDS011;31340;51.402;0.016;2024-01-06T05:09:30;10.48;;;4.00;;
44774;SDS011;31340;51.402;0.016;2024-01-06T05:11:59;11.13;;;4.80;;
44774;SDS011;31340;51.402;0.016;2024-01-06T05:14:27;10.93;;;4.40;;
44774;SDS011;31340;51.402;0.016;2024-01-06T05:16:55;11.25;;;3.75;;
44774;SDS011;31340;51.402;0.016;2024-01-06T05:19:23;8.52;;;4.18;;
44774;SDS011;31340;51.402;0.016;2024-01-06T05:21:51;9.75;;;4.30;;
44774;SDS011;31340;51.402;0.016;2024-01-06T05:24:19;9.23;;;3.95;;
44774;SDS011;31340;51.402;0.016;2024-01-06T05:26:47;6.60;;;3.47;;
44774;SDS011;31340;51.402;0.016;2024-01-06T05:29:15;7.28;;;3.88;;
44774;SDS011;31340;51.402;0.016;2024-01-06T05:31:43;8.77;;;3.60;;
44774;SDS011;31340;51.402;0.016;2024-01-06T05:34:13;9.82;;;4.10;;
44774;SDS011;31340;51.402;0.016;2024-01-06T05:36:41;9.75;;;3.35;;
44774;SDS011;31340;51.402;0.016;2024-01-06T05:39:08;10.05;;;3.83;;
44774;SDS011;31340;51.402;0.016;2024-01-06T05:41:39;7.50;;;3.83;;
44774;SDS011;31340;51.402;0.016;2024-01-06T05:44:09;8.38;;;3.75;;
44774;SDS011;31340;51.402;0.016;2024-01-06T05:46:37;10.82;;;3.83;;
44774;SDS011;31340;51.402;0.016;2024-01-06T05:49:05;10.70;;;3.72;;
44774;SDS011;31340;51.402;0.016;2024-01-06T05:51:33;10.43;;;3.83;;
44774;SDS011;31340;51.402;0.016;2024-01-06T05:54:01;8.65;;;2.80;;
44774;SDS011;31340;51.402;0.016;2024-01-06T05:56:29;6.05;;;2.95;;
44774;SDS011;31340;51.402;0.016;2024-01-06T05:58:57;12.05;;;2.95;;
44774;SDS011;31340;51.402;0.016;2024-01-06T06:01:25;8.70;;;3.28;;
44774;SDS011;31340;51.402;0.016;2024-01-06T06:03:53;7.63;;;3.13;;
44774;SDS011;31340;51.402;0.016;2024-01-06T06:06:21;9.73;;;3.33;;
44774;SDS011;31340;51.402;0.016;2024-01-06T06:08:49;7.97;;;3.80;;
44774;SDS011;31340;51.402;0.016;2024-01-06T06:11:17;7.32;;;3.10;;
44774;SDS011;31340;51.402;0.016;2024-01-06T06:13:46;9.95;;;3.25;;
44774;SDS011;31340;51.402;0.016;2024-01-06T06:16:14;10.40;;;3.33;;
44774;SDS011;31340;51.402;0.016;2024-01-06T06:18:42;9.18;;;3.60;;
44774;SDS011;31340;51.402;0.016;2024-01-06T06:21:09;6.72;;;2.58;;
44774;SDS011;31340;51.402;0.016;2024-01-06T06:23:38;7.20;;;2.72;;
44774;SDS011;31340;51.402;0.016;2024-01-06T06:26:06;4.78;;;2.60;;
44774;SDS011;31340;51.402;0.016;2024-01-06T06:28:35;6.80;;;2.38;;
44774;SDS011;31340;51.402;0.016;2024-01-06T06:31:03;7.55;;;2.72;;
44774;SDS011;31340;51.402;0.016;2024-01-06T06:33:31;8.18;;;3.45;;
44774;SDS011;31340;51.402;0.016;2024-01-06T06:36:00;10.77;;;3.13;;
44774;SDS011;31340;51.402;0.016;2024-01-06T06:38:29;10.63;;;3.67;;
44774;SDS011;31340;51.402;0.016;2024-01-06T06:40:57;3.72;;;2.10;;
44774;SDS011;31340;51.402;0.016;2024-01-06T06:43:24;6.85;;;2.35;;
44774;SDS011;31340;51.402;0.016;2024-01-06T06:45:52;5.93;;;2.25;;
44774;SDS011;31340;51.402;0.016;2024-01-06T06:48:20;6.13;;;2.83;;
44774;SDS011;31340;51.402;0.016;2024-01-06T06:50:48;12.93;;;3.65;;
44774;SDS011;31340;51.402;0.016;2024-01-06T06:53:16;8.70;;;2.60;;
44774;SDS011;31340;51.402;0.016;2024-01-06T06:55:43;5.80;;;2.50;;
44774;SDS011;31340;51.402;0.016;2024-01-06T06:58:11;8.13;;;2.85;;
44774;SDS011;31340;51.402;0.016;2024-01-06T07:00:39;8.10;;;2.47;;
44774;SDS011;31340;51.402;0.016;2024-01-06T07:03:07;9.90;;;2.80;;
44774;SDS011;31340;51.402;0.016;2024-01-06T07:05:35;9.50;;;3.10;;
44774;SDS011;31340;51.402;0.016;2024-01-06T07:08:04;8.95;;;2.50;;
44774;SDS011;31340;51.402;0.016;2024-01-06T07:10:32;6.82;;;2.50;;
44774;SDS011;31340;51.402;0.016;2024-01-06T07:13:00;5.32;;;2.42;;
44774;SDS011;31340;51.402;0.016;2024-01-06T07:15:27;5.35;;;2.25;;
44774;SDS011;31340;51.402;0.016;2024-01-06T07:17:55;4.63;;;2.08;;
44774;SDS011;31340;51.402;0.016;2024-01-06T07:20:23;11.85;;;3.13;;
44774;SDS011;31340;51.402;0.016;2024-01-06T07:22:51;6.28;;;2.78;;
44774;SDS011;31340;51.402;0.016;2024-01-06T07:25:18;4.90;;;2.38;;
44774;SDS011;31340;51.402;0.016;2024-01-06T07:27:46;6.72;;;2.25;;
44774;SDS011;31340;51.402;0.016;2024-01-06T07:30:14;6.28;;;2.35;;
44774;SDS011;31340;51.402;0.016;2024-01-06T07:32:43;7.10;;;2.33;;
44774;SDS011;31340;51.402;0.016;2024-01-06T07:35:11;7.85;;;2.78;;
44774;SDS011;31340;51.402;0.016;2024-01-06T07:37:42;6.53;;;1.90;;
44774;SDS011;31340;51.402;0.016;2024-01-06T07:40:10;5.25;;;2.30;;
44774;SDS011;31340;51.402;0.016;2024-01-06T07:42:41;5.22;;;1.88;;
44774;SDS011;31340;51.402;0.016;2024-01-06T07:45:09;4.38;;;2.00;;
44774;SDS011;31340;51.402;0.016;2024-01-06T07:47:37;7.35;;;2.17;;
44774;SDS011;31340;51.402;0.016;2024-01-06T07:50:05;6.85;;;2.35;;
44774;SDS011;31340;51.402;0.016;2024-01-06T07:52:33;5.15;;;2.28;;
44774;SDS011;31340;51.402;0.016;2024-01-06T07:55:01;7.32;;;2.45;;
44774;SDS011;31340;51.402;0.016;2024-01-06T07:57:30;5.68;;;1.95;;
44774;SDS011;31340;51.402;0.016;2024-01-06T07:59:58;7.35;;;2.72;;
44774;SDS011;31340;51.402;0.016;2024-01-06T08:02:38;5.82;;;2.95;;
44774;SDS011;31340;51.402;0.016;2024-01-06T08:05:05;10.02;;;3.42;;
44774;SDS011;31340;51.402;0.016;2024-01-06T08:07:34;8.45;;;3.05;;
44774;SDS011;31340;51.402;0.016;2024-01-06T08:10:01;9.10;;;2.83;;
44774;SDS011;31340;51.402;0.016;2024-01-06T08:12:33;7.93;;;2.63;;
44774;SDS011;31340;51.402;0.016;2024-01-06T08:15:01;9.32;;;2.80;;
44774;SDS011;31340;51.402;0.016;2024-01-06T08:17:29;6.35;;;3.17;;
44774;SDS011;31340;51.402;0.016;2024-01-06T08:19:57;8.70;;;3.22;;
44774;SDS011;31340;51.402;0.016;2024-01-06T08:22:24;7.05;;;3.28;;
44774;SDS011;31340;51.402;0.016;2024-01-06T08:24:52;7.40;;;2.75;;
44774;SDS011;31340;51.402;0.016;2024-01-06T08:27:20;5.82;;;3.08;;
44774;SDS011;31340;51.402;0.016;2024-01-06T08:29:48;7.47;;;3.28;;
44774;SDS011;31340;51.402;0.016;2024-01-06T08:32:17;7.93;;;3.20;;
44774;SDS011;31340;51.402;0.016;2024-01-06T08:34:44;9.93;;;3.05;;
44774;SDS011;31340;51.402;0.016;2024-01-06T08:37:12;9.70;;;3.42;;
44774;SDS011;31340;51.402;0.016;2024-01-06T08:39:41;8.32;;;2.85;;
44774;SDS011;31340;51.402;0.016;2024-01-06T08:42:08;12.18;;;2.92;;
44774;SDS011;31340;51.402;0.016;2024-01-06T08:44:36;5.70;;;2.47;;
44774;SDS011;31340;51.402;0.016;2024-01-06T08:47:04;8.02;;;2.75;;
44774;SDS011;31340;51.402;0.016;2024-01-06T08:49:33;8.40;;;2.92;;
44774;SDS011;31340;51.402;0.016;2024-01-06T08:52:01;4.88;;;2.50;;
44774;SDS011;31340;51.402;0.016;2024-01-06T08:54:29;7.03;;;3.35;;
44774;SDS011;31340;51.402;0.016;2024-01-06T08:56:57;9.45;;;3.60;;
44774;SDS011;31340;51.402;0.016;2024-01-06T08:59:25;10.13;;;2.55;;
44774;SDS011;31340;51.402;0.016;2024-01-06T09:01:52;9.43;;;2.50;;
44774;SDS011;31340;51.402;0.016;2024-01-06T09:04:20;5.13;;;2.08;;
44774;SDS011;31340;51.402;0.016;2024-01-06T09:06:48;9.98;;;3.28;;
44774;SDS011;31340;51.402;0.016;2024-01-06T09:09:16;6.05;;;2.17;;
44774;SDS011;31340;51.402;0.016;2024-01-06T09:11:43;4.93;;;1.83;;
44774;SDS011;31340;51.402;0.016;2024-01-06T09:14:11;7.03;;;2.05;;
44774;SDS011;31340;51.402;0.016;2024-01-06T09:16:39;6.88;;;2.30;;
44774;SDS011;31340;51.402;0.016;2024-01-06T09:19:07;10.32;;;3.22;;
44774;SDS011;31340;51.402;0.016;2024-01-06T09:21:35;4.35;;;1.95;;
44774;SDS011;31340;51.402;0.016;2024-01-06T09:24:03;6.68;;;2.50;;
44774;SDS011;31340;51.402;0.016;2024-01-06T09:26:34;7.90;;;2.05;;
44774;SDS011;31340;51.402;0.016;2024-01-06T09:29:02;6.03;;;1.95;;
44774;SDS011;31340;51.402;0.016;2024-01-06T09:31:30;7.32;;;2.10;;
44774;SDS011;31340;51.402;0.016;2024-01-06T09:34:00;5.10;;;2.65;;
44774;SDS011;31340;51.402;0.016;2024-01-06T09:36:31;6.07;;;2.10;;
44774;SDS011;31340;51.402;0.016;2024-01-06T09:38:59;8.30;;;2.33;;
44774;SDS011;31340;51.402;0.016;2024-01-06T09:41:27;7.00;;;2.38;;
44774;SDS011;31340;51.402;0.016;2024-01-06T09:43:55;5.43;;;2.00;;
44774;SDS011;31340;51.402;0.016;2024-01-06T09:46:25;7.13;;;2.10;;
44774;SDS011;31340;51.402;0.016;2024-01-06T09:48:54;5.47;;;2.00;;
44774;SDS011;31340;51.402;0.016;2024-01-06T09:51:24;5.63;;;2.20;;
44774;SDS011;31340;51.402;0.016;2024-01-06T09:56:28;6.60;;;2.42;;
44774;SDS011;31340;51.402;0.016;2024-01-06T09:58:57;5.70;;;1.98;;
44774;SDS011;31340;51.402;0.016;2024-01-06T10:01:25;11.63;;;1.95;;
44774;SDS011;31340;51.402;0.016;2024-01-06T10:03:53;8.45;;;2.15;;
44774;SDS011;31340;51.402;0.016;2024-01-06T10:06:23;9.68;;;2.15;;
44774;SDS011;31340;51.402;0.016;2024-01-06T10:08:52;5.60;;;2.28;;
44774;SDS011;31340;51.402;0.016;2024-01-06T10:11:21;8.57;;;2.00;;
44774;SDS011;31340;51.402;0.016;2024-01-06T10:13:51;5.65;;;2.15;;
44774;SDS011;31340;51.402;0.016;2024-01-06T10:16:19;5.63;;;2.00;;
44774;SDS011;31340;51.402;0.016;2024-01-06T10:18:48;7.90;;;2.22;;
44774;SDS011;31340;51.402;0.016;2024-01-06T10:21:20;8.18;;;2.40;;
44774;SDS011;31340;51.402;0.016;2024-01-06T10:23:49;14.13;;;2.65;;
44774;SDS011;31340;51.402;0.016;2024-01-06T10:26:18;7.80;;;2.10;;
44774;SDS011;31340;51.402;0.016;2024-01-06T10:28:47;5.90;;;1.63;;
44774;SDS011;31340;51.402;0.016;2024-01-06T10:31:17;4.57;;;2.00;;
44774;SDS011;31340;51.402;0.016;2024-01-06T10:33:45;6.07;;;1.70;;
44774;SDS011;31340;51.402;0.016;2024-01-06T10:36:14;6.82;;;1.67;;
44774;SDS011;31340;51.402;0.016;2024-01-06T10:38:45;7.45;;;1.67;;
44774;SDS011;31340;51.402;0.016;2024-01-06T10:41:14;3.88;;;1.20;;
44774;SDS011;31340;51.402;0.016;2024-01-06T10:43:44;6.85;;;1.63;;
44774;SDS011;31340;51.402;0.016;2024-01-06T10:46:14;4.22;;;1.75;;
44774;SDS011;31340;51.402;0.016;2024-01-06T10:48:43;5.07;;;1.75;;
44774;SDS011;31340;51.402;0.016;2024-01-06T10:51:13;6.57;;;1.48;;
44774;SDS011;31340;51.402;0.016;2024-01-06T10:53:42;3.03;;;1.63;;
44774;SDS011;31340;51.402;0.016;2024-01-06T10:56:11;5.60;;;1.70;;
44774;SDS011;31340;51.402;0.016;2024-01-06T10:58:43;4.78;;;1.42;;
44774;SDS011;31340;51.402;0.016;2024-01-06T11:01:14;8.88;;;1.52;;
44774;SDS011;31340;51.402;0.016;2024-01-06T11:03:47;5.28;;;1.50;;
44774;SDS011;31340;51.402;0.016;2024-01-06T11:06:17;5.40;;;1.70;;
44774;SDS011;31340;51.402;0.016;2024-01-06T11:11:33;4.20;;;1.50;;
44774;SDS011;31340;51.402;0.016;2024-01-06T11:16:55;4.28;;;1.30;;
44774;SDS011;31340;51.402;0.016;2024-01-06T11:22:24;4.47;;;1.70;;
44774;SDS011;31340;51.402;0.016;2024-01-06T11:25:05;4.50;;;1.92;;
44774;SDS011;31340;51.402;0.016;2024-01-06T11:27:41;2.85;;;1.80;;
44774;SDS011;31340;51.402;0.016;2024-01-06T11:30:20;8.57;;;2.33;;
44774;SDS011;31340;51.402;0.016;2024-01-06T11:32:56;11.07;;;2.97;;
44774;SDS011;31340;51.402;0.016;2024-01-06T11:35:27;6.72;;;2.40;;
44774;SDS011;31340;51.402;0.016;2024-01-06T11:37:55;7.72;;;2.50;;
44774;SDS011;31340;51.402;0.016;2024-01-06T11:40:32;7.57;;;2.58;;
44774;SDS011;31340;51.402;0.016;2024-01-06T11:43:02;5.30;;;2.13;;
44774;SDS011;31340;51.402;0.016;2024-01-06T11:45:35;7.20;;;2.08;;
44774;SDS011;31340;51.402;0.016;2024-01-06T11:48:04;5.50;;;2.33;;
44774;SDS011;31340;51.402;0.016;2024-01-06T11:50:34;4.03;;;1.88;;
44774;SDS011;31340;51.402;0.016;2024-01-06T11:53:05;6.50;;;2.38;;
44774;SDS011;31340;51.402;0.016;2024-01-06T11:55:35;5.45;;;2.22;;
44774;SDS011;31340;51.402;0.016;2024-01-06T11:58:03;6.63;;;2.17;;
44774;SDS011;31340;51.402;0.016;2024-01-06T12:00:33;5.55;;;2.20;;
44774;SDS011;31340;51.402;0.016;2024-01-06T12:03:04;5.45;;;1.83;;
44774;SDS011;31340;51.402;0.016;2024-01-06T12:05:32;5.78;;;1.60;;
44774;SDS011;31340;51.402;0.016;2024-01-06T12:08:01;6.75;;;2.00;;
44774;SDS011;31340;51.402;0.016;2024-01-06T12:10:32;6.05;;;2.10;;
44774;SDS011;31340;51.402;0.016;2024-01-06T12:13:01;8.05;;;2.50;;
44774;SDS011;31340;51.402;0.016;2024-01-06T12:15:31;5.10;;;2.10;;
44774;SDS011;31340;51.402;0.016;2024-01-06T12:18:03;7.35;;;2.25;;
44774;SDS011;31340;51.402;0.016;2024-01-06T12:20:32;7.20;;;2.53;;
44774;SDS011;31340;51.402;0.016;2024-01-06T12:23:00;7.03;;;2.70;;
44774;SDS011;31340;51.402;0.016;2024-01-06T12:25:34;6.90;;;2.78;;
44774;SDS011;31340;51.402;0.016;2024-01-06T12:28:07;5.10;;;3.10;;
44774;SDS011;31340;51.402;0.016;2024-01-06T12:30:35;5.00;;;2.30;;
44774;SDS011;31340;51.402;0.016;2024-01-06T12:33:03;6.65;;;2.50;;
44774;SDS011;31340;51.402;0.016;2024-01-06T12:35:32;4.13;;;2.33;;
44774;SDS011;31340;51.402;0.016;2024-01-06T12:38:01;5.22;;;2.47;;
44774;SDS011;31340;51.402;0.016;2024-01-06T12:40:37;8.25;;;2.40;;
44774;SDS011;31340;51.402;0.016;2024-01-06T12:43:05;5.03;;;2.53;;
44774;SDS011;31340;51.402;0.016;2024-01-06T12:45:34;5.78;;;2.58;;
44774;SDS011;31340;51.402;0.016;2024-01-06T12:48:02;4.60;;;2.40;;
44774;SDS011;31340;51.402;0.016;2024-01-06T12:50:30;6.53;;;1.90;;
44774;SDS011;31340;51.402;0.016;2024-01-06T12:52:58;5.15;;;2.08;;
44774;SDS011;31340;51.402;0.016;2024-01-06T12:55:26;4.00;;;2.10;;
44774;SDS011;31340;51.402;0.016;2024-01-06T12:57:54;5.03;;;2.20;;
44774;SDS011;31340;51.402;0.016;2024-01-06T13:00:22;7.82;;;2.20;;
44774;SDS011;31340;51.402;0.016;2024-01-06T13:02:50;3.97;;;2.00;;
44774;SDS011;31340;51.402;0.016;2024-01-06T13:05:18;3.97;;;1.90;;
44774;SDS011;31340;51.402;0.016;2024-01-06T13:07:47;4.13;;;2.03;;
44774;SDS011;31340;51.402;0.016;2024-01-06T13:10:16;5.20;;;1.80;;
44774;SDS011;31340;51.402;0.016;2024-01-06T13:12:45;4.10;;;1.92;;
44774;SDS011;31340;51.402;0.016;2024-01-06T13:15:15;3.55;;;1.60;;
44774;SDS011;31340;51.402;0.016;2024-01-06T13:17:43;5.30;;;1.90;;
44774;SDS011;31340;51.402;0.016;2024-01-06T13:20:12;7.18;;;2.17;;
44774;SDS011;31340;51.402;0.016;2024-01-06T13:22:41;4.97;;;2.20;;
44774;SDS011;31340;51.402;0.016;2024-01-06T13:25:09;8.77;;;2.25;;
44774;SDS011;31340;51.402;0.016;2024-01-06T13:27:37;5.50;;;1.90;;
44774;SDS011;31340;51.402;0.016;2024-01-06T13:30:05;4.97;;;1.95;;
44774;SDS011;31340;51.402;0.016;2024-01-06T13:32:35;3.95;;;1.95;;
44774;SDS011;31340;51.402;0.016;2024-01-06T13:35:03;5.53;;;1.98;;
44774;SDS011;31340;51.402;0.016;2024-01-06T13:37:33;7.53;;;2.13;;
44774;SDS011;31340;51.402;0.016;2024-01-06T13:40:01;3.95;;;1.90;;
44774;SDS011;31340;51.402;0.016;2024-01-06T13:42:30;5.10;;;1.80;;
44774;SDS011;31340;51.402;0.016;2024-01-06T13:44:58;6.40;;;2.22;;
44774;SDS011;31340;51.402;0.016;2024-01-06T13:47:27;5.10;;;2.08;;
44774;SDS011;31340;51.402;0.016;2024-01-06T13:49:56;5.07;;;2.05;;
44774;SDS011;31340;51.402;0.016;2024-01-06T13:52:24;4.60;;;1.90;;
44774;SDS011;31340;51.402;0.016;2024-01-06T13:54:52;5.53;;;1.58;;
44774;SDS011;31340;51.402;0.016;2024-01-06T13:57:20;3.90;;;1.60;;
44774;SDS011;31340;51.402;0.016;2024-01-06T13:59:48;4.57;;;1.95;;
44774;SDS011;31340;51.402;0.016;2024-01-06T14:02:16;3.15;;;2.00;;
44774;SDS011;31340;51.402;0.016;2024-01-06T14:04:44;4.22;;;1.50;;
44774;SDS011;31340;51.402;0.016;2024-01-06T14:07:13;3.40;;;1.60;;
44774;SDS011;31340;51.402;0.016;2024-01-06T14:09:41;4.10;;;1.48;;
44774;SDS011;31340;51.402;0.016;2024-01-06T14:12:09;2.83;;;1.65;;
44774;SDS011;31340;51.402;0.016;2024-01-06T14:14:37;3.35;;;1.30;;
44774;SDS011;31340;51.402;0.016;2024-01-06T14:17:05;3.85;;;1.40;;
44774;SDS011;31340;51.402;0.016;2024-01-06T14:19:33;4.93;;;1.58;;
44774;SDS011;31340;51.402;0.016;2024-01-06T14:22:01;6.35;;;2.15;;
44774;SDS011;31340;51.402;0.016;2024-01-06T14:24:32;4.75;;;2.20;;
44774;SDS011;31340;51.402;0.016;2024-01-06T14:27:00;3.92;;;1.75;;
44774;SDS011;31340;51.402;0.016;2024-01-06T14:29:28;5.32;;;1.80;;
44774;SDS011;31340;51.402;0.016;2024-01-06T14:31:55;5.43;;;2.15;;
44774;SDS011;31340;51.402;0.016;2024-01-06T14:34:24;6.07;;;2.00;;
44774;SDS011;31340;51.402;0.016;2024-01-06T14:36:52;10.73;;;2.38;;
44774;SDS011;31340;51.402;0.016;2024-01-06T14:39:20;4.38;;;2.05;;
44774;SDS011;31340;51.402;0.016;2024-01-06T14:41:50;3.65;;;1.98;;
44774;SDS011;31340;51.402;0.016;2024-01-06T14:44:19;4.63;;;2.10;;
44774;SDS011;31340;51.402;0.016;2024-01-06T14:46:47;6.25;;;2.72;;
44774;SDS011;31340;51.402;0.016;2024-01-06T14:49:19;4.65;;;2.15;;
44774;SDS011;31340;51.402;0.016;2024-01-06T14:51:47;6.85;;;2.60;;
44774;SDS011;31340;51.402;0.016;2024-01-06T14:54:15;5.32;;;2.58;;
44774;SDS011;31340;51.402;0.016;2024-01-06T14:56:43;7.45;;;3.08;;
44774;SDS011;31340;51.402;0.016;2024-01-06T14:59:12;7.32;;;2.95;;
44774;SDS011;31340;51.402;0.016;2024-01-06T15:01:44;6.38;;;3.13;;
44774;SDS011;31340;51.402;0.016;2024-01-06T15:04:14;7.90;;;2.63;;
44774;SDS011;31340;51.402;0.016;2024-01-06T15:06:42;7.35;;;2.67;;
44774;SDS011;31340;51.402;0.016;2024-01-06T15:09:10;5.13;;;2.00;;
44774;SDS011;31340;51.402;0.016;2024-01-06T15:11:39;4.25;;;1.83;;
44774;SDS011;31340;51.402;0.016;2024-01-06T15:14:07;6.57;;;2.00;;